createdAt,value
2019-04-16T00:00:49.422Z,10.95
2019-04-16T00:01:49.395Z,10.91
2019-04-16T00:02:51.261Z,10.83
2019-04-16T00:03:53.693Z,10.85
2019-04-16T00:04:49.339Z,10.86
2019-04-16T00:05:49.322Z,10.73
2019-04-16T00:06:49.302Z,10.93
2019-04-16T00:07:49.287Z,10.90
2019-04-16T00:08:49.582Z,10.75
2019-04-16T00:09:49.249Z,10.75
2019-04-16T00:10:49.228Z,10.78
2019-04-16T00:11:49.240Z,10.76
2019-04-16T00:12:49.196Z,10.64
2019-04-16T00:13:49.177Z,10.68
2019-04-16T00:14:49.158Z,10.72
2019-04-16T00:15:49.137Z,10.75
2019-04-16T00:16:49.127Z,10.75
2019-04-16T00:17:49.415Z,10.62
2019-04-16T00:18:57.111Z,10.61
2019-04-16T00:19:49.063Z,10.54
2019-04-16T00:20:49.047Z,10.65
2019-04-16T00:21:49.028Z,10.61
2019-04-16T00:22:49.013Z,10.55
2019-04-16T00:23:48.992Z,10.52
2019-04-16T00:24:48.971Z,10.65
2019-04-16T00:25:48.954Z,10.67
2019-04-16T00:26:48.936Z,10.60
2019-04-16T00:27:48.921Z,10.65
2019-04-16T00:28:48.899Z,10.75
2019-04-16T00:29:48.879Z,10.49
2019-04-16T00:30:48.860Z,10.45
2019-04-16T00:31:49.168Z,10.45
2019-04-16T00:32:48.823Z,10.45
2019-04-16T00:33:48.808Z,10.41
2019-04-16T00:34:48.796Z,10.43
2019-04-16T00:35:48.767Z,10.46
2019-04-16T00:36:49.414Z,10.55
2019-04-16T00:37:51.418Z,10.38
2019-04-16T00:38:53.351Z,10.55
2019-04-16T00:39:48.698Z,10.60
2019-04-16T00:40:48.676Z,10.57
2019-04-16T00:41:48.661Z,10.62
2019-04-16T00:42:48.641Z,10.55
2019-04-16T00:43:48.628Z,10.46
2019-04-16T00:44:48.612Z,10.38
2019-04-16T00:45:48.586Z,10.42
2019-04-16T00:46:48.568Z,10.48
2019-04-16T00:47:51.452Z,10.41
2019-04-16T00:48:48.530Z,10.41
2019-04-16T00:49:48.530Z,10.41
2019-04-16T00:50:48.498Z,10.48
2019-04-16T00:51:48.475Z,10.60
2019-04-16T00:52:48.456Z,10.58
2019-04-16T00:53:48.438Z,10.57
2019-04-16T00:54:48.423Z,10.52
2019-04-16T00:55:48.401Z,10.45
2019-04-16T00:56:48.391Z,10.41
2019-04-16T00:57:49.245Z,10.45
2019-04-16T00:58:49.444Z,10.34
2019-04-16T00:59:48.330Z,10.35
2019-04-16T01:00:48.307Z,10.43
2019-04-16T01:01:48.301Z,10.45
2019-04-16T01:02:48.275Z,10.45
2019-04-16T01:03:48.251Z,10.52
2019-04-16T01:04:48.232Z,10.49
2019-04-16T01:05:48.212Z,10.49
2019-04-16T01:06:48.206Z,10.55
2019-04-16T01:07:48.176Z,10.49
2019-04-16T01:08:54.793Z,10.38
2019-04-16T01:09:48.145Z,10.36
2019-04-16T01:10:48.128Z,10.39
2019-04-16T01:11:48.925Z,10.42
2019-04-16T01:12:48.085Z,10.54
2019-04-16T01:13:48.070Z,10.49
2019-04-16T01:14:48.048Z,10.58
2019-04-16T01:15:48.029Z,10.61
2019-04-16T01:16:48.010Z,10.60
2019-04-16T01:17:47.992Z,10.54
2019-04-16T01:18:47.973Z,10.49
2019-04-16T01:19:47.953Z,10.49
2019-04-16T01:20:47.936Z,10.46
2019-04-16T01:21:47.918Z,10.36
2019-04-16T01:22:47.906Z,10.39
2019-04-16T01:23:49.318Z,10.38
2019-04-16T01:24:51.410Z,10.36
2019-04-16T01:25:47.843Z,10.35
2019-04-16T01:26:47.825Z,10.36
2019-04-16T01:27:47.808Z,10.38
2019-04-16T01:28:47.789Z,10.38
2019-04-16T01:29:48.083Z,10.41
2019-04-16T01:30:47.752Z,10.35
2019-04-16T01:31:47.748Z,10.30
2019-04-16T01:32:47.713Z,10.34
2019-04-16T01:33:47.706Z,10.38
2019-04-16T01:34:48.480Z,10.36
2019-04-16T01:35:51.094Z,10.26
2019-04-16T01:36:47.637Z,10.21
2019-04-16T01:37:47.628Z,10.21
2019-04-16T01:38:47.601Z,10.10
2019-04-16T01:39:48.299Z,10.09
2019-04-16T01:40:50.154Z,9.94
2019-04-16T01:41:47.545Z,9.93
2019-04-16T01:42:47.526Z,9.99
2019-04-16T01:43:47.507Z,9.87
2019-04-16T01:44:47.489Z,9.87
2019-04-16T01:45:47.473Z,9.85
2019-04-16T01:46:47.452Z,9.81
2019-04-16T01:47:47.432Z,9.90
2019-04-16T01:48:47.419Z,9.98
2019-04-16T01:49:47.393Z,9.99
2019-04-16T01:50:47.381Z,10.05
2019-04-16T01:51:48.069Z,10.10
2019-04-16T01:52:49.763Z,10.09
2019-04-16T01:53:49.431Z,10.08
2019-04-16T01:54:47.302Z,10.17
2019-04-16T01:55:47.288Z,10.24
2019-04-16T01:56:47.268Z,10.16
2019-04-16T01:57:47.246Z,10.06
2019-04-16T01:58:47.228Z,10.05
2019-04-16T01:59:47.206Z,10.05
2019-04-16T02:00:47.186Z,9.96
2019-04-16T02:01:47.196Z,9.99
2019-04-16T02:02:47.162Z,10.02
2019-04-16T02:03:48.872Z,9.96
2019-04-16T02:04:48.541Z,10.01
2019-04-16T02:05:47.092Z,9.96
2019-04-16T02:06:47.079Z,10.01
2019-04-16T02:07:47.055Z,9.99
2019-04-16T02:08:47.042Z,9.99
2019-04-16T02:09:47.016Z,9.85
2019-04-16T02:10:47.000Z,9.80
2019-04-16T02:11:46.979Z,9.80
2019-04-16T02:12:46.961Z,9.75
2019-04-16T02:13:47.064Z,9.65
2019-04-16T02:14:47.370Z,9.63
2019-04-16T02:15:46.908Z,9.70
2019-04-16T02:16:46.885Z,9.75
2019-04-16T02:17:46.865Z,9.72
2019-04-16T02:18:46.846Z,9.65
2019-04-16T02:19:46.828Z,9.54
2019-04-16T02:20:46.807Z,9.63
2019-04-16T02:21:46.791Z,9.69
2019-04-16T02:22:46.772Z,9.75
2019-04-16T02:23:48.143Z,9.78
2019-04-16T02:24:47.864Z,9.72
2019-04-16T02:25:48.508Z,9.77
2019-04-16T02:26:46.702Z,9.75
2019-04-16T02:27:46.676Z,9.81
2019-04-16T02:28:46.659Z,9.83
2019-04-16T02:29:46.638Z,9.77
2019-04-16T02:30:46.624Z,9.78
2019-04-16T02:31:47.933Z,9.66
2019-04-16T02:32:46.581Z,9.65
2019-04-16T02:33:46.562Z,9.47
2019-04-16T02:34:46.549Z,9.44
2019-04-16T02:35:46.527Z,9.42
2019-04-16T02:36:46.508Z,9.44
2019-04-16T02:37:46.529Z,9.42
2019-04-16T02:38:52.750Z,9.44
2019-04-16T02:39:48.336Z,9.27
2019-04-16T02:40:51.604Z,9.27
2019-04-16T02:41:46.412Z,9.29
2019-04-16T02:42:46.411Z,9.33
2019-04-16T02:43:46.377Z,9.33
2019-04-16T02:44:50.108Z,9.14
2019-04-16T02:45:46.334Z,9.12
2019-04-16T02:46:46.318Z,9.11
2019-04-16T02:47:46.303Z,9.12
2019-04-16T02:48:50.307Z,9.14
2019-04-16T02:49:46.258Z,9.18
2019-04-16T02:50:46.248Z,9.16
2019-04-16T02:51:46.230Z,9.15
2019-04-16T02:52:50.555Z,9.29
2019-04-16T02:53:46.184Z,9.24
2019-04-16T02:54:46.165Z,9.24
2019-04-16T02:55:46.144Z,9.23
2019-04-16T02:56:51.749Z,9.32
2019-04-16T02:57:46.114Z,9.32
2019-04-16T02:58:46.087Z,9.27
2019-04-16T02:59:47.472Z,9.32
2019-04-16T03:00:49.039Z,9.26
2019-04-16T03:01:46.030Z,9.23
2019-04-16T03:02:46.010Z,9.11
2019-04-16T03:03:45.988Z,9.09
2019-04-16T03:04:45.973Z,9.14
2019-04-16T03:05:45.953Z,9.04
2019-04-16T03:06:45.935Z,9.11
2019-04-16T03:07:45.912Z,9.08
2019-04-16T03:08:45.888Z,9.08
2019-04-16T03:09:45.872Z,9.12
2019-04-16T03:10:45.857Z,9.23
2019-04-16T03:11:49.020Z,9.23
2019-04-16T03:12:45.815Z,9.19
2019-04-16T03:13:45.800Z,9.23
2019-04-16T03:14:45.776Z,9.27
2019-04-16T03:15:45.763Z,9.33
2019-04-16T03:16:45.768Z,9.33
2019-04-16T03:17:45.723Z,9.40
2019-04-16T03:18:47.374Z,9.41
2019-04-16T03:19:50.947Z,9.18
2019-04-16T03:20:45.658Z,9.27
2019-04-16T03:21:45.640Z,9.27
2019-04-16T03:22:45.637Z,9.23
2019-04-16T03:23:45.607Z,9.16
2019-04-16T03:24:45.583Z,9.04
2019-04-16T03:25:45.560Z,9.01
2019-04-16T03:26:47.600Z,8.99
2019-04-16T03:27:45.523Z,9.08
2019-04-16T03:28:45.502Z,9.09
2019-04-16T03:29:45.481Z,8.98
2019-04-16T03:30:45.472Z,8.93
2019-04-16T03:31:45.443Z,8.92
2019-04-16T03:32:45.427Z,8.96
2019-04-16T03:33:50.595Z,9.09
2019-04-16T03:34:45.387Z,9.09
2019-04-16T03:35:45.365Z,9.12
2019-04-16T03:36:45.346Z,9.16
2019-04-16T03:37:45.326Z,9.04
2019-04-16T03:38:45.308Z,9.14
2019-04-16T03:39:45.286Z,9.18
2019-04-16T03:40:45.271Z,9.06
2019-04-16T03:41:45.250Z,8.93
2019-04-16T03:42:45.297Z,8.83
2019-04-16T03:43:45.209Z,8.89
2019-04-16T03:44:45.200Z,8.90
2019-04-16T03:45:45.175Z,8.89
2019-04-16T03:46:46.769Z,8.96
2019-04-16T03:47:45.135Z,8.96
2019-04-16T03:48:45.120Z,8.98
2019-04-16T03:49:45.096Z,9.01
2019-04-16T03:50:45.077Z,9.11
2019-04-16T03:51:45.052Z,9.04
2019-04-16T03:52:45.731Z,8.92
2019-04-16T03:53:46.459Z,8.93
2019-04-16T03:54:44.995Z,8.85
2019-04-16T03:55:44.980Z,8.81
2019-04-16T03:56:44.956Z,8.92
2019-04-16T03:57:44.938Z,8.89
2019-04-16T03:58:44.920Z,9.01
2019-04-16T03:59:44.926Z,9.08
2019-04-16T04:00:45.091Z,9.06
2019-04-16T04:01:46.167Z,9.16
2019-04-16T04:02:44.841Z,9.22
2019-04-16T04:03:44.820Z,9.19
2019-04-16T04:04:44.799Z,9.19
2019-04-16T04:05:44.781Z,9.23
2019-04-16T04:06:44.762Z,9.23
2019-04-16T04:07:45.076Z,9.32
2019-04-16T04:08:48.021Z,9.27
2019-04-16T04:09:44.703Z,9.24
2019-04-16T04:10:44.681Z,9.23
2019-04-16T04:11:44.661Z,9.34
2019-04-16T04:12:45.678Z,9.22
2019-04-16T04:13:49.699Z,9.16
2019-04-16T04:14:44.607Z,9.16
2019-04-16T04:15:44.584Z,9.18
2019-04-16T04:16:44.569Z,9.22
2019-04-16T04:17:44.545Z,9.18
2019-04-16T04:18:44.548Z,9.18
2019-04-16T04:19:46.250Z,9.14
2019-04-16T04:20:44.516Z,9.19
2019-04-16T04:21:44.476Z,9.18
2019-04-16T04:22:44.451Z,9.16
2019-04-16T04:23:44.439Z,9.03
2019-04-16T04:24:44.411Z,9.12
2019-04-16T04:25:44.389Z,9.09
2019-04-16T04:26:44.371Z,9.09
2019-04-16T04:27:46.797Z,9.14
2019-04-16T04:28:44.329Z,9.14
2019-04-16T04:29:46.337Z,9.11
2019-04-16T04:30:44.296Z,9.08
2019-04-16T04:31:44.282Z,8.93
2019-04-16T04:32:47.374Z,8.99
2019-04-16T04:33:44.237Z,8.90
2019-04-16T04:34:45.390Z,8.98
2019-04-16T04:35:44.199Z,8.99
2019-04-16T04:36:44.179Z,8.96
2019-04-16T04:37:44.162Z,8.98
2019-04-16T04:38:44.141Z,8.95
2019-04-16T04:39:44.848Z,8.95
2019-04-16T04:40:45.025Z,8.89
2019-04-16T04:41:44.079Z,8.99
2019-04-16T04:42:44.059Z,8.93
2019-04-16T04:43:44.045Z,8.83
2019-04-16T04:44:46.859Z,8.83
2019-04-16T04:45:44.002Z,9.01
2019-04-16T04:46:46.074Z,8.96
2019-04-16T04:47:43.964Z,8.85
2019-04-16T04:48:43.946Z,8.95
2019-04-16T04:49:43.924Z,8.86
2019-04-16T04:50:43.905Z,8.96
2019-04-16T04:51:43.887Z,8.86
2019-04-16T04:52:46.154Z,8.93
2019-04-16T04:53:43.890Z,8.86
2019-04-16T04:54:43.828Z,8.85
2019-04-16T04:55:43.806Z,8.86
2019-04-16T04:56:43.787Z,8.90
2019-04-16T04:57:43.771Z,8.88
2019-04-16T04:58:43.748Z,8.92
2019-04-16T04:59:43.732Z,8.88
2019-04-16T05:00:43.713Z,8.85
2019-04-16T05:01:43.698Z,8.83
2019-04-16T05:02:44.415Z,8.85
2019-04-16T05:03:44.369Z,8.83
2019-04-16T05:04:43.633Z,8.81
2019-04-16T05:05:43.616Z,8.92
2019-04-16T05:06:43.595Z,8.85
2019-04-16T05:07:43.575Z,8.88
2019-04-16T05:08:43.554Z,8.93
2019-04-16T05:09:43.537Z,8.85
2019-04-16T05:10:45.351Z,8.83
2019-04-16T05:11:43.494Z,8.80
2019-04-16T05:12:43.478Z,8.81
2019-04-16T05:13:43.457Z,8.88
2019-04-16T05:14:43.438Z,8.81
2019-04-16T05:15:43.422Z,8.80
2019-04-16T05:16:43.396Z,8.83
2019-04-16T05:17:43.376Z,8.80
2019-04-16T05:18:43.357Z,8.90
2019-04-16T05:19:43.869Z,8.90
2019-04-16T05:20:46.741Z,8.83
2019-04-16T05:21:43.301Z,8.86
2019-04-16T05:22:43.282Z,8.86
2019-04-16T05:23:43.265Z,8.93
2019-04-16T05:24:43.249Z,8.81
2019-04-16T05:25:43.222Z,8.80
2019-04-16T05:26:43.204Z,8.92
2019-04-16T05:27:43.182Z,8.83
2019-04-16T05:28:45.515Z,8.89
2019-04-16T05:29:43.145Z,8.90
2019-04-16T05:30:43.128Z,8.96
2019-04-16T05:31:43.106Z,8.92
2019-04-16T05:32:43.087Z,9.04
2019-04-16T05:33:43.067Z,9.08
2019-04-16T05:34:43.049Z,9.04
2019-04-16T05:35:43.027Z,9.14
2019-04-16T05:36:46.568Z,9.06
2019-04-16T05:37:42.987Z,9.06
2019-04-16T05:38:42.973Z,9.09
2019-04-16T05:39:42.949Z,9.04
2019-04-16T05:40:42.938Z,9.03
2019-04-16T05:41:42.911Z,8.98
2019-04-16T05:42:42.894Z,9.01
2019-04-16T05:43:42.872Z,9.03
2019-04-16T05:44:42.864Z,8.78
2019-04-16T05:45:42.843Z,8.68
2019-04-16T05:46:46.462Z,8.65
2019-04-16T05:47:42.796Z,8.80
2019-04-16T05:48:42.776Z,8.80
2019-04-16T05:49:42.759Z,8.78
2019-04-16T05:50:42.736Z,8.81
2019-04-16T05:51:42.721Z,8.83
2019-04-16T05:52:42.699Z,9.01
2019-04-16T05:53:42.691Z,8.81
2019-04-16T05:54:44.526Z,8.81
2019-04-16T05:55:42.652Z,8.85
2019-04-16T05:56:42.632Z,8.81
2019-04-16T05:57:42.616Z,8.68
2019-04-16T05:58:42.594Z,8.67
2019-04-16T05:59:42.565Z,8.85
2019-04-16T06:00:42.544Z,8.86
2019-04-16T06:01:45.468Z,8.88
2019-04-16T06:02:42.509Z,8.83
2019-04-16T06:03:42.496Z,9.04
2019-04-16T06:04:42.467Z,9.01
2019-04-16T06:05:42.455Z,9.08
2019-04-16T06:06:42.430Z,9.14
2019-04-16T06:07:42.407Z,9.15
2019-04-16T06:08:42.408Z,9.18
2019-04-16T06:09:44.489Z,9.16
2019-04-16T06:10:42.352Z,9.19
2019-04-16T06:11:42.332Z,9.24
2019-04-16T06:12:42.310Z,9.24
2019-04-16T06:13:44.366Z,9.18
2019-04-16T06:14:42.272Z,9.22
2019-04-16T06:15:42.261Z,9.16
2019-04-16T06:16:42.236Z,9.22
2019-04-16T06:17:42.214Z,9.30
2019-04-16T06:18:42.198Z,9.32
2019-04-16T06:19:46.438Z,9.29
2019-04-16T06:20:42.157Z,9.42
2019-04-16T06:21:42.139Z,9.44
2019-04-16T06:22:42.123Z,9.52
2019-04-16T06:23:42.104Z,9.63
2019-04-16T06:24:42.084Z,9.63
2019-04-16T06:25:42.156Z,9.59
2019-04-16T06:26:44.459Z,9.65
2019-04-16T06:27:42.025Z,9.59
2019-04-16T06:28:42.005Z,9.57
2019-04-16T06:29:41.990Z,9.62
2019-04-16T06:30:41.971Z,9.81
2019-04-16T06:31:41.949Z,9.83
2019-04-16T06:32:41.933Z,9.90
2019-04-16T06:33:41.915Z,9.96
2019-04-16T06:34:41.893Z,9.99
2019-04-16T06:35:43.438Z,9.98
2019-04-16T06:36:41.861Z,9.91
2019-04-16T06:37:41.843Z,10.08
2019-04-16T06:38:41.824Z,10.10
2019-04-16T06:39:41.799Z,10.12
2019-04-16T06:40:41.789Z,10.20
2019-04-16T06:41:47.478Z,10.28
2019-04-16T06:42:41.752Z,10.41
2019-04-16T06:43:41.728Z,10.34
2019-04-16T06:44:41.710Z,10.38
2019-04-16T06:45:41.699Z,10.45
2019-04-16T06:46:41.682Z,10.64
2019-04-16T06:47:42.712Z,11.03
2019-04-16T06:48:42.502Z,11.38
2019-04-16T06:49:41.637Z,11.77
2019-04-16T06:50:41.621Z,12.30
2019-04-16T06:51:44.539Z,12.53
2019-04-16T06:52:41.596Z,12.83
2019-04-16T06:53:41.587Z,13.21
2019-04-16T06:54:41.570Z,13.86
2019-04-16T06:55:42.967Z,14.28
2019-04-16T06:56:41.543Z,14.31
2019-04-16T06:57:42.862Z,14.77
2019-04-16T06:58:50.779Z,15.23
2019-04-16T06:59:41.519Z,15.15
2019-04-16T07:00:41.507Z,15.63
2019-04-16T07:01:42.210Z,15.66
2019-04-16T07:02:44.009Z,16.21
2019-04-16T07:03:41.474Z,16.55
2019-04-16T07:04:41.464Z,17.17
2019-04-16T07:05:41.452Z,17.63
2019-04-16T07:06:43.761Z,17.75
2019-04-16T07:07:45.760Z,18.27
2019-04-16T07:08:41.941Z,18.21
2019-04-16T07:09:42.226Z,18.15
2019-04-16T07:10:44.733Z,18.36
2019-04-16T07:11:53.768Z,18.24
2019-04-16T07:12:41.400Z,18.68
2019-04-16T07:13:42.230Z,18.81
2019-04-16T07:14:41.382Z,19.05
2019-04-16T07:15:41.370Z,19.47
2019-04-16T07:16:41.360Z,19.37
2019-04-16T07:17:41.365Z,19.38
2019-04-16T07:18:41.346Z,18.91
2019-04-16T07:19:42.120Z,18.97
2019-04-16T07:20:42.303Z,19.17
2019-04-16T07:21:41.330Z,19.27
2019-04-16T07:22:41.326Z,19.57
2019-04-16T07:23:41.485Z,19.52
2019-04-16T07:24:41.314Z,19.86
2019-04-16T07:25:43.142Z,18.83
2019-04-16T07:26:46.642Z,18.43
2019-04-16T07:27:41.494Z,18.71
2019-04-16T07:28:41.382Z,19.09
2019-04-16T07:29:41.291Z,19.72
2019-04-16T07:30:41.395Z,20.14
2019-04-16T07:31:41.342Z,20.63
2019-04-16T07:32:41.272Z,20.98
2019-04-16T07:33:41.263Z,20.75
2019-04-16T07:34:41.257Z,20.73
2019-04-16T07:35:41.257Z,20.50
2019-04-16T07:36:41.251Z,20.71
2019-04-16T07:37:41.247Z,20.83
2019-04-16T07:38:41.240Z,20.98
2019-04-16T07:39:41.238Z,21.25
2019-04-16T07:40:41.244Z,21.41
2019-04-16T07:41:43.349Z,22.00
2019-04-16T07:42:51.671Z,22.36
2019-04-16T07:43:41.227Z,21.98
2019-04-16T07:44:41.219Z,21.47
2019-04-16T07:45:41.218Z,22.01
2019-04-16T07:46:41.212Z,22.48
2019-04-16T07:47:41.219Z,22.86
2019-04-16T07:48:41.208Z,22.16
2019-04-16T07:49:41.213Z,21.48
2019-04-16T07:50:41.202Z,21.44
2019-04-16T07:51:41.201Z,22.01
2019-04-16T07:52:42.001Z,21.44
2019-04-16T07:53:41.196Z,21.00
2019-04-16T07:54:41.211Z,21.00
2019-04-16T07:55:41.201Z,21.48
2019-04-16T07:56:41.191Z,21.58
2019-04-16T07:57:41.195Z,21.19
2019-04-16T07:58:41.189Z,21.25
2019-04-16T07:59:41.187Z,21.80
2019-04-16T08:00:41.583Z,21.63
2019-04-16T08:01:44.077Z,21.75
2019-04-16T08:02:41.182Z,21.63
2019-04-16T08:03:41.177Z,21.80
2019-04-16T08:04:41.189Z,21.53
2019-04-16T08:05:41.924Z,21.32
2019-04-16T08:06:46.287Z,20.73
2019-04-16T08:07:41.180Z,20.46
2019-04-16T08:08:41.173Z,20.95
2019-04-16T08:09:41.173Z,21.71
2019-04-16T08:10:41.170Z,22.27
2019-04-16T08:11:41.169Z,22.21
2019-04-16T08:12:42.175Z,22.31
2019-04-16T08:13:41.170Z,22.33
2019-04-16T08:14:41.168Z,21.74
2019-04-16T08:15:41.161Z,20.64
2019-04-16T08:16:47.593Z,21.34
2019-04-16T08:17:41.180Z,21.97
2019-04-16T08:18:41.165Z,22.22
2019-04-16T08:19:41.161Z,22.55
2019-04-16T08:20:41.159Z,21.91
2019-04-16T08:21:44.340Z,22.53
2019-04-16T08:22:41.162Z,22.27
2019-04-16T08:23:41.156Z,22.07
2019-04-16T08:24:41.155Z,22.09
2019-04-16T08:25:41.157Z,21.23
2019-04-16T08:26:41.575Z,21.75
2019-04-16T08:27:41.151Z,21.29
2019-04-16T08:28:41.155Z,20.63
2019-04-16T08:29:41.151Z,20.88
2019-04-16T08:30:41.148Z,21.90
2019-04-16T08:31:44.489Z,20.92
2019-04-16T08:32:41.150Z,21.48
2019-04-16T08:33:41.146Z,22.27
2019-04-16T08:34:41.145Z,22.67
2019-04-16T08:35:41.162Z,23.14
2019-04-16T08:36:41.146Z,23.97
2019-04-16T08:37:48.748Z,24.60
2019-04-16T08:38:41.143Z,25.43
2019-04-16T08:39:41.139Z,24.60
2019-04-16T08:40:46.025Z,24.06
2019-04-16T08:41:41.143Z,23.88
2019-04-16T08:42:44.603Z,24.51
2019-04-16T08:43:41.144Z,24.78
2019-04-16T08:44:41.139Z,25.28
2019-04-16T08:45:41.138Z,25.58
2019-04-16T08:46:41.296Z,25.14
2019-04-16T08:47:44.552Z,24.94
2019-04-16T08:48:41.139Z,24.75
2019-04-16T08:49:41.141Z,25.19
2019-04-16T08:50:41.143Z,24.93
2019-04-16T08:51:41.136Z,25.46
2019-04-16T08:52:41.724Z,25.64
2019-04-16T08:53:43.807Z,26.05
2019-04-16T08:54:41.136Z,25.85
2019-04-16T08:55:41.138Z,25.59
2019-04-16T08:56:43.251Z,26.04
2019-04-16T08:57:41.135Z,25.95
2019-04-16T08:58:41.136Z,26.05
2019-04-16T08:59:42.621Z,26.53
2019-04-16T09:00:45.910Z,26.93
2019-04-16T09:01:41.129Z,27.32
2019-04-16T09:02:41.132Z,27.58
2019-04-16T09:03:41.140Z,27.80
2019-04-16T09:04:41.129Z,27.87
2019-04-16T09:05:42.049Z,27.72
2019-04-16T09:06:42.723Z,28.05
2019-04-16T09:07:41.138Z,28.27
2019-04-16T09:08:41.125Z,28.66
2019-04-16T09:09:41.126Z,28.84
2019-04-16T09:10:44.420Z,28.91
2019-04-16T09:11:41.120Z,28.64
2019-04-16T09:12:45.656Z,28.03
2019-04-16T09:13:41.336Z,27.80
2019-04-16T09:14:41.115Z,28.07
2019-04-16T09:15:41.113Z,27.88
2019-04-16T09:16:43.569Z,27.80
2019-04-16T09:17:41.111Z,27.78
2019-04-16T09:18:41.107Z,27.73
2019-04-16T09:19:41.104Z,28.10
2019-04-16T09:20:41.103Z,28.13
2019-04-16T09:21:44.331Z,28.13
2019-04-16T09:22:48.817Z,28.13
2019-04-16T09:23:41.093Z,28.07
2019-04-16T09:24:41.685Z,27.72
2019-04-16T09:25:42.553Z,27.60
2019-04-16T09:26:43.753Z,27.69
2019-04-16T09:27:41.087Z,27.94
2019-04-16T09:28:41.085Z,27.95
2019-04-16T09:29:41.086Z,27.40
2019-04-16T09:30:41.069Z,27.30
2019-04-16T09:31:41.066Z,27.35
2019-04-16T09:32:41.074Z,26.94
2019-04-16T09:33:41.059Z,27.60
2019-04-16T09:34:41.055Z,27.66
2019-04-16T09:35:41.052Z,27.73
2019-04-16T09:36:41.051Z,27.72
2019-04-16T09:37:41.055Z,28.06
2019-04-16T09:38:45.127Z,27.78
2019-04-16T09:39:41.030Z,27.49
2019-04-16T09:40:41.030Z,27.41
2019-04-16T09:41:41.024Z,27.63
2019-04-16T09:42:41.020Z,27.83
2019-04-16T09:43:41.027Z,27.80
2019-04-16T09:44:41.013Z,27.20
2019-04-16T09:45:40.998Z,27.25
2019-04-16T09:46:53.321Z,26.46
2019-04-16T09:47:40.989Z,26.41
2019-04-16T09:48:40.985Z,26.60
2019-04-16T09:49:40.984Z,26.16
2019-04-16T09:50:46.375Z,25.46
2019-04-16T09:51:40.973Z,25.92
2019-04-16T09:52:40.958Z,26.21
2019-04-16T09:53:41.061Z,26.80
2019-04-16T09:54:41.479Z,26.53
2019-04-16T09:55:40.937Z,27.01
2019-04-16T09:56:40.931Z,26.60
2019-04-16T09:57:40.940Z,27.00
2019-04-16T09:58:42.652Z,27.25
2019-04-16T09:59:40.910Z,27.49
2019-04-16T10:00:40.903Z,27.82
2019-04-16T10:01:40.903Z,27.76
2019-04-16T10:02:40.903Z,27.41
2019-04-16T10:03:40.891Z,27.37
2019-04-16T10:04:40.876Z,26.75
2019-04-16T10:05:40.870Z,26.65
2019-04-16T10:06:40.875Z,25.64
2019-04-16T10:07:41.174Z,25.01
2019-04-16T10:08:44.512Z,25.38
2019-04-16T10:09:40.852Z,24.47
2019-04-16T10:10:40.840Z,24.36
2019-04-16T10:11:40.837Z,24.29
2019-04-16T10:12:40.813Z,24.65
2019-04-16T10:13:40.804Z,24.93
2019-04-16T10:14:40.827Z,25.33
2019-04-16T10:15:40.817Z,25.45
2019-04-16T10:16:40.790Z,25.68
2019-04-16T10:17:40.784Z,25.64
2019-04-16T10:18:40.775Z,25.22
2019-04-16T10:19:43.402Z,24.00
2019-04-16T10:20:40.756Z,23.17
2019-04-16T10:21:40.738Z,23.07
2019-04-16T10:22:40.749Z,22.96
2019-04-16T10:23:40.740Z,23.36
2019-04-16T10:24:40.718Z,23.63
2019-04-16T10:25:40.702Z,24.00
2019-04-16T10:26:40.699Z,24.04
2019-04-16T10:27:40.691Z,23.81
2019-04-16T10:28:40.690Z,23.86
2019-04-16T10:29:40.668Z,23.82
2019-04-16T10:30:40.656Z,23.94
2019-04-16T10:31:40.645Z,24.19
2019-04-16T10:32:40.648Z,24.06
2019-04-16T10:33:40.633Z,24.31
2019-04-16T10:34:40.617Z,23.63
2019-04-16T10:35:40.617Z,22.80
2019-04-16T10:36:40.627Z,21.69
2019-04-16T10:37:40.596Z,21.60
2019-04-16T10:38:40.599Z,20.63
2019-04-16T10:39:40.578Z,20.74
2019-04-16T10:40:40.590Z,20.95
2019-04-16T10:41:40.575Z,21.38
2019-04-16T10:42:40.556Z,21.47
2019-04-16T10:43:44.846Z,22.13
2019-04-16T10:44:40.536Z,22.59
2019-04-16T10:45:40.520Z,23.06
2019-04-16T10:46:40.513Z,22.80
2019-04-16T10:47:40.494Z,23.18
2019-04-16T10:48:40.494Z,23.37
2019-04-16T10:49:40.479Z,23.13
2019-04-16T10:50:40.486Z,22.99
2019-04-16T10:51:40.471Z,23.15
2019-04-16T10:52:40.456Z,23.07
2019-04-16T10:53:40.443Z,22.89
2019-04-16T10:54:40.442Z,22.59
2019-04-16T10:55:40.447Z,22.66
2019-04-16T10:56:40.419Z,23.08
2019-04-16T10:57:40.410Z,23.36
2019-04-16T10:58:40.419Z,23.59
2019-04-16T10:59:40.408Z,23.91
2019-04-16T11:00:40.371Z,24.04
2019-04-16T11:01:40.364Z,24.03
2019-04-16T11:02:40.392Z,24.11
2019-04-16T11:03:40.367Z,24.07
2019-04-16T11:04:42.973Z,23.96
2019-04-16T11:05:40.321Z,23.64
2019-04-16T11:06:40.408Z,23.52
2019-04-16T11:07:40.343Z,23.48
2019-04-16T11:08:40.311Z,23.67
2019-04-16T11:09:40.301Z,23.96
2019-04-16T11:10:40.278Z,23.96
2019-04-16T11:11:40.272Z,23.70
2019-04-16T11:12:40.383Z,23.23
2019-04-16T11:13:40.291Z,23.13
2019-04-16T11:14:40.235Z,23.39
2019-04-16T11:15:40.223Z,23.37
2019-04-16T11:16:40.239Z,23.18
2019-04-16T11:17:40.205Z,23.55
2019-04-16T11:18:40.227Z,23.89
2019-04-16T11:19:40.211Z,23.85
2019-04-16T11:20:40.190Z,23.71
2019-04-16T11:21:40.188Z,23.94
2019-04-16T11:22:40.170Z,24.18
2019-04-16T11:23:40.173Z,23.89
2019-04-16T11:24:40.142Z,23.55
2019-04-16T11:25:40.128Z,22.64
2019-04-16T11:26:40.116Z,22.88
2019-04-16T11:27:40.103Z,22.85
2019-04-16T11:28:40.106Z,22.83
2019-04-16T11:29:42.019Z,23.22
2019-04-16T11:30:40.143Z,23.71
2019-04-16T11:31:40.099Z,23.85
2019-04-16T11:32:40.337Z,24.08
2019-04-16T11:33:40.064Z,24.18
2019-04-16T11:34:40.050Z,24.36
2019-04-16T11:35:40.041Z,24.18
2019-04-16T11:36:40.049Z,24.25
2019-04-16T11:37:43.580Z,24.47
2019-04-16T11:38:40.021Z,24.62
2019-04-16T11:39:39.999Z,24.81
2019-04-16T11:40:41.231Z,24.90
2019-04-16T11:41:39.975Z,24.79
2019-04-16T11:42:39.968Z,24.86
2019-04-16T11:43:39.981Z,24.90
2019-04-16T11:44:39.941Z,25.01
2019-04-16T11:45:39.958Z,25.12
2019-04-16T11:46:39.962Z,25.26
2019-04-16T11:47:39.934Z,25.23
2019-04-16T11:48:39.913Z,25.22
2019-04-16T11:49:39.892Z,25.31
2019-04-16T11:50:39.895Z,25.16
2019-04-16T11:51:39.922Z,25.16
2019-04-16T11:52:40.117Z,25.26
2019-04-16T11:53:39.859Z,24.99
2019-04-16T11:54:39.885Z,24.84
2019-04-16T11:55:39.839Z,25.06
2019-04-16T11:56:39.827Z,24.41
2019-04-16T11:57:39.829Z,24.59
2019-04-16T11:58:39.809Z,24.89
2019-04-16T11:59:39.828Z,25.11
2019-04-16T12:00:39.836Z,25.37
2019-04-16T12:01:39.792Z,25.59
2019-04-16T12:02:39.796Z,25.78
2019-04-16T12:03:39.784Z,25.46
2019-04-16T12:04:39.798Z,25.58
2019-04-16T12:05:39.754Z,25.64
2019-04-16T12:06:39.743Z,24.82
2019-04-16T12:07:39.732Z,24.00
2019-04-16T12:08:39.736Z,23.73
2019-04-16T12:09:39.750Z,23.10
2019-04-16T12:10:39.722Z,23.22
2019-04-16T12:11:39.694Z,23.33
2019-04-16T12:12:39.695Z,23.10
2019-04-16T12:13:39.696Z,22.81
2019-04-16T12:14:42.456Z,22.88
2019-04-16T12:15:39.705Z,23.08
2019-04-16T12:16:39.642Z,23.52
2019-04-16T12:17:39.638Z,23.39
2019-04-16T12:18:39.638Z,23.31
2019-04-16T12:19:39.618Z,23.23
2019-04-16T12:20:39.648Z,23.37
2019-04-16T12:21:39.621Z,23.79
2019-04-16T12:22:39.589Z,23.94
2019-04-16T12:23:39.610Z,24.18
2019-04-16T12:24:39.580Z,24.43
2019-04-16T12:25:39.607Z,24.45
2019-04-16T12:26:39.561Z,24.68
2019-04-16T12:27:39.550Z,24.85
2019-04-16T12:28:43.319Z,25.00
2019-04-16T12:29:39.561Z,25.23
2019-04-16T12:30:39.571Z,25.30
2019-04-16T12:31:39.514Z,25.11
2019-04-16T12:32:39.508Z,24.91
2019-04-16T12:33:39.524Z,24.18
2019-04-16T12:34:39.490Z,23.76
2019-04-16T12:35:39.513Z,23.34
2019-04-16T12:36:39.505Z,23.44
2019-04-16T12:37:39.459Z,23.33
2019-04-16T12:38:39.436Z,23.41
2019-04-16T12:39:39.473Z,23.55
2019-04-16T12:40:42.180Z,23.70
2019-04-16T12:41:39.436Z,23.56
2019-04-16T12:42:42.154Z,23.85
2019-04-16T12:43:39.390Z,23.98
2019-04-16T12:44:45.655Z,24.06
2019-04-16T12:45:39.426Z,23.96
2019-04-16T12:46:39.390Z,23.06
2019-04-16T12:47:39.405Z,22.99
2019-04-16T12:48:39.379Z,22.58
2019-04-16T12:49:39.423Z,22.83
2019-04-16T12:50:39.379Z,23.07
2019-04-16T12:51:40.789Z,23.23
2019-04-16T12:52:39.347Z,22.52
2019-04-16T12:53:39.296Z,22.73
2019-04-16T12:54:39.307Z,22.93
2019-04-16T12:55:39.275Z,22.74
2019-04-16T12:56:41.026Z,22.76
2019-04-16T12:57:39.259Z,23.03
2019-04-16T12:58:39.254Z,23.29
2019-04-16T12:59:39.233Z,23.61
2019-04-16T13:00:39.225Z,23.96
2019-04-16T13:01:39.220Z,24.04